Time;durP1;ratioP1;P1;durP2;ratioP2;P2;SDS_P1;SDS_P2;PMS_P1;PMS_P2;Temp;Humidity;BMP_temperature;BMP_pressure;BME280_temperature;BME280_humidity;BME280_pressure;Samples;Min_cycle;Max_cycle;Signal;HPM_P1;HPM_P2
2023/09/21 00:00:10;;;;;;;1.20;1.07;;;16.10;99.90;;;;;;5010153;28;20033;-82
2023/09/21 00:02:35;;;;;;;0.75;0.70;;;16.00;99.90;;;;;;5010089;28;20030;-82
2023/09/21 00:05:01;;;;;;;3.60;0.73;;;16.00;99.90;;;;;;5009805;28;20026;-82
2023/09/21 00:07:27;;;;;;;0.63;0.63;;;15.90;99.90;;;;;;5010473;28;20100;-83
2023/09/21 00:09:52;;;;;;;2.47;0.90;;;16.10;99.90;;;;;;5009790;28;20068;-83
2023/09/21 00:12:18;;;;;;;1.15;0.85;;;16.10;99.90;;;;;;5011397;28;20050;-83
2023/09/21 00:14:44;;;;;;;1.10;0.80;;;16.00;99.90;;;;;;5009743;28;20157;-83
2023/09/21 00:17:11;;;;;;;0.77;0.77;;;16.00;99.90;;;;;;5010682;28;20064;-83
2023/09/21 00:19:37;;;;;;;2.65;1.27;;;16.00;99.90;;;;;;5009559;28;20021;-83
2023/09/21 00:22:04;;;;;;;1.02;0.93;;;16.00;99.90;;;;;;5009113;28;20362;-82
2023/09/21 00:24:30;;;;;;;0.90;0.90;;;15.90;99.90;;;;;;5009595;28;20109;-83
2023/09/21 00:26:59;;;;;;;1.30;1.30;;;15.90;99.90;;;;;;5009435;28;20129;-83
2023/09/21 00:29:24;;;;;;;0.97;0.70;;;15.90;99.90;;;;;;5010333;28;20097;-81
2023/09/21 00:31:50;;;;;;;2.83;1.52;;;15.90;99.90;;;;;;5008893;28;20380;-82
2023/09/21 00:34:16;;;;;;;0.90;0.80;;;16.00;99.90;;;;;;5009628;28;20018;-82
2023/09/21 00:36:45;;;;;;;1.52;0.73;;;16.00;99.90;;;;;;5009107;28;20053;-82
2023/09/21 00:39:12;;;;;;;1.25;1.15;;;16.00;99.90;;;;;;5009199;28;20486;-83
2023/09/21 00:41:38;;;;;;;1.08;1.00;;;16.10;99.90;;;;;;5009303;28;20104;-84
2023/09/21 00:44:10;;;;;;;1.40;1.08;;;16.10;99.90;;;;;;5009073;28;20022;-83
2023/09/21 00:46:38;;;;;;;0.80;0.80;;;16.10;99.90;;;;;;5009142;28;20058;-84
2023/09/21 00:49:05;;;;;;;0.85;0.82;;;16.20;99.90;;;;;;5008894;28;20088;-82
2023/09/21 00:51:33;;;;;;;1.20;0.98;;;16.30;99.90;;;;;;5008631;28;20037;-83
2023/09/21 00:54:00;;;;;;;0.65;0.63;;;16.20;99.90;;;;;;5009168;28;20033;-82
2023/09/21 00:56:28;;;;;;;0.80;0.77;;;16.20;99.90;;;;;;5008768;28;20026;-82
2023/09/21 00:58:57;;;;;;;1.10;1.00;;;16.10;99.90;;;;;;5008901;28;20033;-83
2023/09/21 01:01:31;;;;;;;1.90;1.40;;;16.10;99.90;;;;;;5008797;28;20029;-82
2023/09/21 01:03:59;;;;;;;10.90;0.90;;;16.10;99.90;;;;;;5008643;28;20026;-82
2023/09/21 01:06:24;;;;;;;0.88;0.85;;;16.10;99.90;;;;;;5008331;28;20429;-82
2023/09/21 01:08:51;;;;;;;4.18;0.85;;;16.00;99.90;;;;;;5008952;28;20117;-82
2023/09/21 01:11:19;;;;;;;1.35;1.25;;;16.00;99.90;;;;;;5008832;28;20022;-82
2023/09/21 01:13:47;;;;;;;1.75;0.82;;;16.10;99.90;;;;;;5009926;28;20032;-83
2023/09/21 01:16:15;;;;;;;2.35;0.77;;;16.10;99.90;;;;;;5008772;28;20077;-82
2023/09/21 01:18:41;;;;;;;9.68;0.82;;;16.00;99.90;;;;;;5008746;28;20033;-83
2023/09/21 01:21:13;;;;;;;0.85;0.85;;;16.10;99.90;;;;;;5008574;28;20049;-83
2023/09/21 01:23:46;;;;;;;2.42;1.05;;;16.00;99.90;;;;;;5008719;28;20024;-82
2023/09/21 01:26:21;;;;;;;0.57;0.57;;;15.90;99.90;;;;;;5008938;28;20030;-82
2023/09/21 01:28:47;;;;;;;1.38;0.75;;;15.90;99.90;;;;;;5002520;28;20084;-82
2023/09/21 01:31:13;;;;;;;0.90;0.90;;;15.90;99.90;;;;;;5009205;28;20030;-82
2023/09/21 01:33:41;;;;;;;2.38;0.70;;;16.00;99.90;;;;;;5008688;28;20030;-82
2023/09/21 01:36:09;;;;;;;1.52;1.20;;;16.00;99.90;;;;;;5009556;28;20022;-82
2023/09/21 01:38:35;;;;;;;1.40;1.10;;;15.90;99.90;;;;;;5009929;28;20018;-82
2023/09/21 01:41:01;;;;;;;0.88;0.88;;;15.90;99.90;;;;;;5008534;28;20125;-82
2023/09/21 01:43:27;;;;;;;1.30;1.20;;;16.00;99.90;;;;;;5010633;28;20680;-82
2023/09/21 01:45:53;;;;;;;1.92;1.33;;;16.10;99.90;;;;;;5012462;28;20056;-82
2023/09/21 01:48:20;;;;;;;0.68;0.68;;;15.90;99.90;;;;;;5012196;28;20544;-82
2023/09/21 01:50:51;;;;;;;1.17;1.05;;;15.80;99.90;;;;;;5011786;28;20479;-82
2023/09/21 01:53:19;;;;;;;1.20;1.17;;;15.70;99.90;;;;;;5011864;28;20096;-83
2023/09/21 01:55:47;;;;;;;0.73;0.73;;;15.70;99.90;;;;;;5012026;28;20445;-83
2023/09/21 01:58:14;;;;;;;1.65;1.00;;;15.60;99.90;;;;;;5011913;28;20394;-82
2023/09/21 02:00:43;;;;;;;14.90;1.70;;;15.60;99.90;;;;;;5011732;28;20026;-83
2023/09/21 02:03:12;;;;;;;2.47;1.17;;;15.60;99.90;;;;;;5012212;28;20025;-82
2023/09/21 02:05:39;;;;;;;1.27;0.90;;;15.60;99.90;;;;;;5011479;28;20018;-83
2023/09/21 02:08:06;;;;;;;1.33;1.23;;;15.60;99.90;;;;;;5011866;28;20315;-84
2023/09/21 02:10:32;;;;;;;1.65;1.20;;;15.60;99.90;;;;;;5011878;28;20364;-83
2023/09/21 02:13:00;;;;;;;4.05;0.85;;;15.50;99.90;;;;;;5011646;28;20026;-84
2023/09/21 02:15:27;;;;;;;1.48;0.93;;;15.50;99.90;;;;;;5011807;28;20018;-84
2023/09/21 02:17:55;;;;;;;0.98;0.73;;;15.60;99.90;;;;;;5011687;28;20104;-83
2023/09/21 02:20:26;;;;;;;1.30;1.23;;;15.60;99.90;;;;;;5011367;28;20022;-84
2023/09/21 02:22:53;;;;;;;2.08;1.00;;;15.60;99.90;;;;;;5012801;28;20025;-84
2023/09/21 02:29:22;;;;;;;0.90;0.60;;;15.60;99.90;;;;;;5027299;28;20037;-82
2023/09/21 02:32:04;;;;;;;1.05;0.82;;;15.50;99.90;;;;;;4987993;28;20092;-83
2023/09/21 02:34:30;;;;;;;3.55;0.90;;;15.50;99.90;;;;;;5011550;28;20474;-84
2023/09/21 02:36:56;;;;;;;1.88;0.95;;;15.50;99.90;;;;;;5011150;28;20038;-84
2023/09/21 02:39:21;;;;;;;1.30;1.00;;;15.50;99.90;;;;;;5011441;28;20032;-84
2023/09/21 02:41:47;;;;;;;0.90;0.90;;;15.50;99.90;;;;;;5011618;28;20033;-84
2023/09/21 02:44:13;;;;;;;2.83;0.98;;;15.60;99.90;;;;;;5011204;28;20026;-84
2023/09/21 02:46:39;;;;;;;0.85;0.85;;;15.60;99.90;;;;;;5011332;28;20421;-83
2023/09/21 02:49:17;;;;;;;1.13;1.13;;;15.70;99.90;;;;;;5019534;28;20077;-83
2023/09/21 02:54:47;;;;;;;1.77;1.38;;;15.80;99.90;;;;;;5022272;28;20114;-82
2023/09/21 02:57:12;;;;;;;1.15;1.02;;;15.80;99.90;;;;;;5010871;28;20125;-83
2023/09/21 02:59:38;;;;;;;4.35;1.50;;;15.80;99.90;;;;;;5011648;28;20097;-83
2023/09/21 03:02:04;;;;;;;3.00;1.17;;;15.70;99.90;;;;;;5010646;28;20026;-83
2023/09/21 03:04:32;;;;;;;3.13;1.10;;;15.70;99.90;;;;;;5011101;28;20462;-83
2023/09/21 03:06:57;;;;;;;1.08;0.98;;;15.60;99.90;;;;;;5010502;28;20045;-82
2023/09/21 03:09:23;;;;;;;11.95;1.08;;;15.60;99.90;;;;;;5010906;28;20494;-84
2023/09/21 03:12:10;;;;;;;3.53;1.17;;;15.70;99.90;;;;;;5021448;28;20026;-82
2023/09/21 03:14:37;;;;;;;0.90;0.88;;;15.70;99.90;;;;;;5023347;28;20318;-83
2023/09/21 03:17:05;;;;;;;1.33;1.23;;;15.70;99.90;;;;;;5010276;28;20423;-82
2023/09/21 03:19:30;;;;;;;6.47;1.45;;;15.60;99.90;;;;;;5010509;28;20541;-83
2023/09/21 03:21:56;;;;;;;1.30;0.90;;;15.60;99.90;;;;;;5010589;28;20057;-83
2023/09/21 03:24:22;;;;;;;0.80;0.80;;;15.60;99.90;;;;;;5011382;28;20040;-83
2023/09/21 03:26:48;;;;;;;1.80;1.58;;;15.60;99.90;;;;;;5010517;28;20032;-83
2023/09/21 03:29:14;;;;;;;0.93;0.93;;;15.50;99.90;;;;;;5012036;28;20151;-83
2023/09/21 03:31:39;;;;;;;1.15;0.80;;;15.50;99.90;;;;;;5010494;28;20049;-83
2023/09/21 03:34:06;;;;;;;1.98;0.93;;;15.50;99.90;;;;;;5010156;28;20036;-83
2023/09/21 03:36:35;;;;;;;1.23;0.70;;;15.40;99.90;;;;;;5009586;28;20026;-83
2023/09/21 03:39:08;;;;;;;0.93;0.70;;;15.40;99.90;;;;;;5009944;28;20425;-82
2023/09/21 03:41:34;;;;;;;0.70;0.70;;;15.40;99.90;;;;;;5009823;28;20147;-83
2023/09/21 03:43:59;;;;;;;1.77;1.20;;;15.50;99.90;;;;;;5018358;28;20029;-84
2023/09/21 03:49:51;;;;;;;1.95;1.20;;;15.60;99.90;;;;;;5016964;28;20061;-83
2023/09/21 03:52:23;;;;;;;1.27;1.27;;;15.70;99.90;;;;;;5017123;28;20057;-83
2023/09/21 03:54:49;;;;;;;1.92;1.35;;;15.70;99.90;;;;;;5012498;28;20113;-83
2023/09/21 03:57:15;;;;;;;1.67;1.58;;;15.70;99.90;;;;;;5010195;28;20496;-84
2023/09/21 03:59:41;;;;;;;1.08;1.00;;;15.60;99.90;;;;;;5009662;28;20364;-83
2023/09/21 04:02:07;;;;;;;3.50;1.90;;;15.60;99.90;;;;;;5009959;28;20033;-84
2023/09/21 04:04:33;;;;;;;1.88;1.17;;;15.60;99.90;;;;;;5009944;28;20025;-82
2023/09/21 04:06:59;;;;;;;7.07;1.60;;;15.60;99.90;;;;;;5009270;28;20025;-83
2023/09/21 04:09:24;;;;;;;3.13;1.40;;;15.50;99.90;;;;;;5010990;28;20037;-83
2023/09/21 04:11:50;;;;;;;5.13;1.48;;;15.60;99.90;;;;;;5009571;28;20253;-84
2023/09/21 04:14:16;;;;;;;1.70;1.58;;;15.50;99.90;;;;;;5009275;28;20025;-82
2023/09/21 04:16:41;;;;;;;1.15;1.02;;;15.50;99.90;;;;;;5009362;28;20026;-82
2023/09/21 04:19:10;;;;;;;1.23;0.70;;;15.50;99.90;;;;;;5009466;28;20406;-84
2023/09/21 04:21:36;;;;;;;0.60;0.45;;;15.50;99.90;;;;;;5009273;28;20120;-83
2023/09/21 04:24:02;;;;;;;1.80;1.55;;;15.50;99.90;;;;;;5009344;28;20037;-83
2023/09/21 04:26:28;;;;;;;2.13;1.92;;;15.60;99.90;;;;;;5022460;28;20026;-83
2023/09/21 04:28:55;;;;;;;0.80;0.80;;;15.70;99.90;;;;;;5009715;28;20088;-83
2023/09/21 04:31:21;;;;;;;5.78;1.67;;;15.70;99.90;;;;;;5010143;28;20034;-83
2023/09/21 04:33:47;;;;;;;1.33;1.00;;;15.70;99.90;;;;;;5011677;28;20022;-82
2023/09/21 04:36:14;;;;;;;2.33;1.00;;;15.60;99.90;;;;;;5010801;28;20021;-83
2023/09/21 04:38:50;;;;;;;0.82;0.70;;;15.60;99.90;;;;;;5017987;28;20077;-82
2023/09/21 04:41:16;;;;;;;0.85;0.85;;;15.60;99.90;;;;;;5031184;28;20149;-83
2023/09/21 04:43:43;;;;;;;0.70;0.70;;;15.70;99.90;;;;;;5010024;28;20101;-84
2023/09/21 04:46:09;;;;;;;1.30;1.17;;;15.70;99.90;;;;;;5009484;28;20030;-83
2023/09/21 04:48:36;;;;;;;1.75;1.48;;;15.70;99.90;;;;;;5008911;28;20033;-83
2023/09/21 04:51:02;;;;;;;2.17;0.70;;;15.60;99.90;;;;;;5009777;28;20336;-82
2023/09/21 04:53:29;;;;;;;1.30;1.08;;;15.60;99.90;;;;;;5009444;28;20054;-82
2023/09/21 04:55:55;;;;;;;1.23;1.10;;;15.70;99.90;;;;;;5011864;28;20021;-83
2023/09/21 04:58:23;;;;;;;1.02;0.93;;;15.70;99.90;;;;;;5009236;28;20112;-82
2023/09/21 05:00:49;;;;;;;2.38;1.40;;;15.70;99.90;;;;;;5009082;28;20372;-82
2023/09/21 05:03:15;;;;;;;1.30;0.80;;;15.70;99.90;;;;;;5018495;28;20061;-83
2023/09/21 05:05:41;;;;;;;0.60;0.60;;;15.60;99.90;;;;;;5008834;28;20065;-82
2023/09/21 05:08:09;;;;;;;6.50;1.30;;;15.60;99.90;;;;;;5018659;28;20038;-81
2023/09/21 05:10:34;;;;;;;1.30;0.95;;;15.60;99.90;;;;;;5011617;28;20318;-86
2023/09/21 05:13:00;;;;;;;0.93;0.75;;;15.60;99.90;;;;;;5004075;28;20079;-78
2023/09/21 05:15:26;;;;;;;2.00;0.90;;;15.50;99.90;;;;;;5012639;28;20034;-81
2023/09/21 05:17:52;;;;;;;4.40;0.77;;;15.50;99.90;;;;;;5024486;28;20064;-81
2023/09/21 05:20:18;;;;;;;3.10;1.27;;;15.30;99.90;;;;;;5030441;28;20018;-81
2023/09/21 05:22:44;;;;;;;1.52;0.60;;;15.50;99.90;;;;;;5020654;28;20462;-81
2023/09/21 05:25:10;;;;;;;2.10;0.90;;;15.50;99.90;;;;;;5011123;28;20030;-82
2023/09/21 05:27:36;;;;;;;2.70;1.08;;;15.60;99.90;;;;;;5011298;28;20372;-81
2023/09/21 05:30:04;;;;;;;1.88;1.05;;;15.60;99.90;;;;;;5012064;28;20033;-81
2023/09/21 05:32:32;;;;;;;1.02;0.93;;;15.50;99.90;;;;;;5011020;28;20029;-81
2023/09/21 05:34:59;;;;;;;0.75;0.75;;;15.60;99.90;;;;;;5011682;28;20022;-83
2023/09/21 05:37:25;;;;;;;2.30;1.17;;;15.60;99.90;;;;;;5010510;28;20029;-85
2023/09/21 05:39:51;;;;;;;1.70;1.20;;;15.60;99.90;;;;;;5010704;28;20601;-83
2023/09/21 05:42:17;;;;;;;1.27;0.88;;;15.60;99.90;;;;;;5009714;28;20112;-84
2023/09/21 05:44:43;;;;;;;1.95;1.02;;;15.60;99.90;;;;;;5014419;28;20049;-83
2023/09/21 05:47:09;;;;;;;1.05;0.80;;;15.60;99.90;;;;;;5019073;28;20030;-80
2023/09/21 05:49:37;;;;;;;1.35;0.82;;;15.70;99.90;;;;;;5013231;28;20083;-85
2023/09/21 05:52:08;;;;;;;0.65;0.65;;;15.70;99.90;;;;;;5011333;28;20050;-83
2023/09/21 05:54:35;;;;;;;2.05;1.10;;;15.80;99.90;;;;;;5011765;28;20018;-84
2023/09/21 05:57:03;;;;;;;0.80;0.65;;;16.00;99.90;;;;;;5011508;28;20152;-83
2023/09/21 05:59:31;;;;;;;5.88;1.40;;;16.00;99.90;;;;;;5013381;28;20049;-82
2023/09/21 06:02:00;;;;;;;0.90;0.88;;;16.10;99.90;;;;;;5011101;28;20022;-83
2023/09/21 06:04:26;;;;;;;1.23;0.75;;;16.00;99.90;;;;;;5011162;28;20041;-82
2023/09/21 06:06:54;;;;;;;8.85;4.30;;;16.00;99.90;;;;;;5010646;28;20341;-83
2023/09/21 06:09:20;;;;;;;5.82;4.15;;;16.10;99.90;;;;;;5011139;28;20587;-82
2023/09/21 06:11:49;;;;;;;4.18;1.45;;;16.20;99.90;;;;;;4991632;28;20061;-82
2023/09/21 06:14:16;;;;;;;2.47;1.90;;;16.30;99.90;;;;;;4991468;28;20023;-81
2023/09/21 06:16:42;;;;;;;42.13;23.48;;;16.40;99.90;;;;;;4992378;28;20383;-83
2023/09/21 06:19:11;;;;;;;12.82;6.47;;;16.60;99.90;;;;;;5010774;28;20022;-82
2023/09/21 06:21:39;;;;;;;9.32;5.28;;;16.80;99.90;;;;;;5009459;28;20045;-82
2023/09/21 06:24:06;;;;;;;6.72;3.58;;;16.90;99.90;;;;;;5010949;28;20072;-84
2023/09/21 06:26:32;;;;;;;1.58;1.48;;;17.10;99.90;;;;;;5011550;28;20026;-83
2023/09/21 06:28:59;;;;;;;1.52;1.42;;;17.20;99.90;;;;;;5009953;28;20044;-75
2023/09/21 06:31:25;;;;;;;2.75;1.95;;;17.20;99.90;;;;;;5010277;28;20014;-81
2023/09/21 06:33:53;;;;;;;2.35;1.50;;;17.30;99.90;;;;;;5010265;28;20029;-81
2023/09/21 06:36:20;;;;;;;1.15;1.15;;;17.40;99.90;;;;;;5013213;28;20014;-80
2023/09/21 06:38:47;;;;;;;5.00;3.10;;;17.50;99.90;;;;;;5011415;28;20071;-78
2023/09/21 06:41:15;;;;;;;2.67;1.35;;;17.60;99.90;;;;;;5012505;28;20030;-85
2023/09/21 06:43:42;;;;;;;1.42;1.00;;;17.70;99.90;;;;;;5013141;28;20018;-82
2023/09/21 06:46:11;;;;;;;0.63;0.63;;;17.80;99.90;;;;;;5016442;28;20510;-81
2023/09/21 06:48:38;;;;;;;1.95;0.85;;;18.00;99.90;;;;;;5017343;28;20079;-82
2023/09/21 06:51:10;;;;;;;1.33;1.17;;;18.00;99.90;;;;;;5014637;28;20338;-83
2023/09/21 06:53:36;;;;;;;1.60;1.25;;;17.80;99.90;;;;;;5019394;28;20121;-82
2023/09/21 06:56:03;;;;;;;0.85;0.60;;;17.60;99.90;;;;;;5020514;28;20076;-82
2023/09/21 06:58:30;;;;;;;1.55;1.00;;;17.60;99.90;;;;;;5010103;28;20014;-82
2023/09/21 07:00:58;;;;;;;1.67;1.15;;;17.50;99.90;;;;;;5009285;28;20037;-82
2023/09/21 07:03:24;;;;;;;0.95;0.95;;;17.50;99.90;;;;;;5008628;28;20022;-81
2023/09/21 07:05:50;;;;;;;3.63;1.15;;;17.60;99.90;;;;;;5009354;28;20179;-82
2023/09/21 07:08:16;;;;;;;1.10;1.00;;;17.70;99.90;;;;;;5008363;28;20550;-81
2023/09/21 07:10:43;;;;;;;1.17;0.90;;;17.70;99.90;;;;;;5007757;28;20022;-81
2023/09/21 07:13:09;;;;;;;3.92;1.90;;;17.90;99.90;;;;;;5008505;28;20030;-82
2023/09/21 07:15:37;;;;;;;2.65;1.35;;;18.00;99.90;;;;;;5009391;28;20139;-82
2023/09/21 07:18:05;;;;;;;0.95;0.65;;;18.10;99.90;;;;;;5009472;28;20037;-81
2023/09/21 07:20:31;;;;;;;1.45;1.00;;;18.30;99.90;;;;;;5009152;28;20040;-81
2023/09/21 07:22:57;;;;;;;5.95;0.98;;;18.70;99.90;;;;;;5010746;28;20550;-80
2023/09/21 07:25:23;;;;;;;1.60;1.50;;;19.10;99.90;;;;;;5010909;28;20095;-81
2023/09/21 07:27:51;;;;;;;3.65;1.48;;;19.50;99.90;;;;;;5009272;28;20044;-80
2023/09/21 07:30:18;;;;;;;1.50;1.40;;;20.10;99.90;;;;;;5009240;28;20029;-80
2023/09/21 07:32:43;;;;;;;1.27;1.10;;;20.70;99.90;;;;;;5009273;28;20026;-80
2023/09/21 07:35:09;;;;;;;0.80;0.80;;;21.10;99.90;;;;;;5008845;28;20032;-80
2023/09/21 07:37:35;;;;;;;1.65;1.30;;;21.50;99.90;;;;;;5009468;28;20107;-80
2023/09/21 07:40:06;;;;;;;1.20;0.98;;;21.90;99.90;;;;;;5012487;28;20406;-80
2023/09/21 07:42:33;;;;;;;2.97;1.33;;;22.30;99.90;;;;;;5011192;28;20045;-82
2023/09/21 07:44:59;;;;;;;1.88;0.95;;;22.80;99.90;;;;;;5019594;28;20014;-83
2023/09/21 07:47:28;;;;;;;3.17;1.10;;;22.80;99.90;;;;;;5012411;28;20048;-81
2023/09/21 07:49:57;;;;;;;2.58;1.23;;;22.80;99.90;;;;;;5013426;28;20033;-83
2023/09/21 07:52:23;;;;;;;0.68;0.68;;;22.60;99.90;;;;;;5012277;28;20053;-81
2023/09/21 07:54:49;;;;;;;5.30;1.60;;;22.50;99.90;;;;;;5011653;28;20026;-81
2023/09/21 07:57:16;;;;;;;2.75;1.23;;;22.50;99.90;;;;;;5011610;28;20614;-82
2023/09/21 07:59:42;;;;;;;3.75;1.25;;;22.30;99.90;;;;;;5010737;28;20033;-81
2023/09/21 08:02:09;;;;;;;1.70;1.60;;;22.30;99.90;;;;;;5010488;28;20022;-80
2023/09/21 08:04:35;;;;;;;1.00;0.93;;;22.00;99.90;;;;;;5010279;28;20080;-80
2023/09/21 08:07:01;;;;;;;3.17;1.20;;;21.80;99.90;;;;;;5009952;28;20026;-80
2023/09/21 08:09:27;;;;;;;1.80;1.27;;;21.70;99.90;;;;;;5010012;28;20041;-81
2023/09/21 08:11:52;;;;;;;2.08;1.35;;;21.70;99.90;;;;;;5011958;28;20065;-81
2023/09/21 08:14:18;;;;;;;0.98;0.90;;;21.60;99.90;;;;;;5011215;28;20109;-81
2023/09/21 08:16:44;;;;;;;2.80;1.98;;;21.80;99.90;;;;;;5010669;28;20088;-81
2023/09/21 08:19:10;;;;;;;4.50;1.50;;;21.80;99.90;;;;;;5011164;28;20061;-81
2023/09/21 08:21:36;;;;;;;6.55;1.52;;;21.80;99.90;;;;;;5014853;28;20017;-81
2023/09/21 08:24:02;;;;;;;5.68;1.30;;;22.20;99.90;;;;;;5019314;28;20376;-82
2023/09/21 08:26:28;;;;;;;3.05;1.63;;;22.60;99.90;;;;;;5019419;28;20010;-81
2023/09/21 08:28:54;;;;;;;5.30;1.73;;;22.90;99.90;;;;;;5019223;28;20109;-81
2023/09/21 08:31:20;;;;;;;3.22;1.67;;;22.90;99.90;;;;;;5020552;28;20013;-80
2023/09/21 08:33:49;;;;;;;4.53;1.45;;;23.20;99.90;;;;;;5020270;28;20151;-80
2023/09/21 08:36:15;;;;;;;3.33;1.52;;;23.30;99.90;;;;;;5018742;28;20018;-81
2023/09/21 08:38:42;;;;;;;2.05;1.55;;;23.40;99.90;;;;;;5018937;28;20392;-80
2023/09/21 08:41:08;;;;;;;4.05;1.38;;;23.60;99.90;;;;;;5018996;28;20112;-80
2023/09/21 08:43:35;;;;;;;2.10;1.42;;;23.60;99.90;;;;;;5018587;28;20134;-79
2023/09/21 08:46:01;;;;;;;1.35;1.20;;;23.80;99.90;;;;;;5017484;28;20060;-81
2023/09/21 08:48:29;;;;;;;2.05;1.80;;;23.90;99.90;;;;;;5018588;28;20250;-80
2023/09/21 08:50:55;;;;;;;4.60;1.77;;;23.90;99.90;;;;;;5017828;28;20311;-80
2023/09/21 08:53:23;;;;;;;2.47;1.40;;;23.90;99.90;;;;;;5016967;28;20297;-80
2023/09/21 08:55:52;;;;;;;2.30;1.40;;;23.90;99.90;;;;;;5018330;28;20026;-80
2023/09/21 08:58:27;;;;;;;1.42;1.33;;;23.70;99.90;;;;;;5018044;28;20021;-80
2023/09/21 09:00:55;;;;;;;1.88;1.13;;;23.60;99.90;;;;;;5019447;28;20281;-80
2023/09/21 09:03:23;;;;;;;1.80;1.63;;;23.20;99.90;;;;;;5017300;28;20028;-80
2023/09/21 09:05:48;;;;;;;1.25;1.05;;;23.20;99.90;;;;;;5017851;28;20026;-80
2023/09/21 09:08:14;;;;;;;1.38;1.17;;;23.30;99.90;;;;;;5018012;28;20040;-80
2023/09/21 09:10:41;;;;;;;1.85;1.33;;;23.40;99.90;;;;;;5018546;28;20014;-80
2023/09/21 09:13:07;;;;;;;4.80;1.65;;;23.60;99.90;;;;;;5018920;28;20014;-81
2023/09/21 09:15:34;;;;;;;6.50;1.98;;;23.70;99.90;;;;;;5018530;28;20018;-81
2023/09/21 09:18:04;;;;;;;1.83;1.27;;;23.50;99.90;;;;;;5018492;28;20018;-82
2023/09/21 09:20:30;;;;;;;3.17;1.60;;;23.50;99.90;;;;;;5018100;28;20152;-81
2023/09/21 09:22:56;;;;;;;1.20;1.10;;;23.70;99.90;;;;;;5018637;28;20036;-81
2023/09/21 09:25:23;;;;;;;2.70;1.13;;;23.50;99.90;;;;;;5017928;28;20022;-82
2023/09/21 09:27:49;;;;;;;2.08;1.08;;;23.50;99.90;;;;;;5017550;28;20034;-80
2023/09/21 09:30:16;;;;;;;1.15;1.05;;;23.50;99.90;;;;;;5017765;28;20040;-80
2023/09/21 09:32:42;;;;;;;2.45;1.30;;;23.60;99.90;;;;;;5018236;28;20026;-79
2023/09/21 09:35:12;;;;;;;1.80;1.15;;;23.80;99.90;;;;;;5017025;28;20010;-80
2023/09/21 09:37:47;;;;;;;2.03;0.90;;;24.20;99.90;;;;;;5010404;28;20120;-80
2023/09/21 09:40:14;;;;;;;3.10;0.95;;;24.70;99.90;;;;;;5011103;28;20124;-80
2023/09/21 09:42:41;;;;;;;3.63;1.85;;;25.00;99.90;;;;;;5007519;28;20283;-80
2023/09/21 09:45:25;;;;;;;1.33;1.10;;;25.20;99.90;;;;;;5006944;28;20060;-80
2023/09/21 09:48:01;;;;;;;2.17;1.02;;;25.50;99.90;;;;;;5004037;28;20038;-80
2023/09/21 09:50:33;;;;;;;2.50;0.98;;;25.60;99.70;;;;;;5008906;28;20022;-80
2023/09/21 09:53:13;;;;;;;1.02;0.90;;;25.60;98.60;;;;;;5008101;28;20399;-80
2023/09/21 09:55:42;;;;;;;2.17;1.33;;;25.80;98.30;;;;;;5012850;28;20070;-80
2023/09/21 09:58:08;;;;;;;3.97;1.45;;;26.10;97.80;;;;;;5011997;28;20068;-80
2023/09/21 10:00:43;;;;;;;1.38;0.85;;;26.10;97.20;;;;;;5014949;28;20029;-79
2023/09/21 10:03:11;;;;;;;2.53;0.90;;;26.30;96.70;;;;;;5007882;28;20759;-80
2023/09/21 10:05:39;;;;;;;1.48;1.10;;;26.40;93.00;;;;;;5013206;28;20065;-80
2023/09/21 10:08:07;;;;;;;1.80;1.00;;;26.80;93.30;;;;;;5015430;28;20038;-80
2023/09/21 10:10:44;;;;;;;3.87;1.23;;;27.00;91.60;;;;;;5014985;28;20017;-80
2023/09/21 10:13:11;;;;;;;3.72;1.20;;;27.20;91.50;;;;;;5012458;28;20277;-80
2023/09/21 10:15:37;;;;;;;2.47;1.30;;;27.40;90.80;;;;;;5012396;28;20034;-80
2023/09/21 10:18:04;;;;;;;2.70;0.75;;;27.20;88.80;;;;;;5012437;28;20029;-80
2023/09/21 10:20:33;;;;;;;0.98;0.98;;;27.00;90.60;;;;;;5015279;28;20437;-80
2023/09/21 10:23:09;;;;;;;0.68;0.68;;;26.60;90.70;;;;;;5009165;28;20608;-80
2023/09/21 10:25:46;;;;;;;2.33;0.90;;;26.30;90.60;;;;;;5008829;28;20109;-80
2023/09/21 10:28:31;;;;;;;1.58;1.23;;;26.00;90.30;;;;;;5012299;28;20037;-80
2023/09/21 10:31:18;;;;;;;1.10;0.60;;;25.70;91.60;;;;;;5011541;28;20029;-80
2023/09/21 10:33:51;;;;;;;4.10;0.88;;;25.40;91.10;;;;;;5016611;28;20365;-80
2023/09/21 10:36:50;;;;;;;2.63;1.30;;;25.50;91.00;;;;;;5012810;28;20022;-80
2023/09/21 10:39:24;;;;;;;3.10;1.88;;;25.70;91.70;;;;;;5013643;28;20026;-80
2023/09/21 10:42:17;;;;;;;3.25;1.40;;;25.90;92.10;;;;;;5011464;28;20041;-80
2023/09/21 10:45:03;;;;;;;3.58;0.85;;;26.10;92.00;;;;;;5008152;28;20084;-80
2023/09/21 10:47:33;;;;;;;4.68;0.88;;;26.00;92.50;;;;;;5012153;28;20084;-79
2023/09/21 10:50:02;;;;;;;1.67;0.80;;;26.10;92.40;;;;;;5009706;28;20117;-80
2023/09/21 10:52:28;;;;;;;0.73;0.73;;;26.30;91.80;;;;;;5007875;28;20112;-80
2023/09/21 10:54:56;;;;;;;1.30;1.17;;;26.50;92.40;;;;;;5009464;28;20077;-81
2023/09/21 10:57:29;;;;;;;3.40;0.88;;;26.70;92.90;;;;;;5010084;28;20021;-80
2023/09/21 10:59:58;;;;;;;2.25;0.88;;;26.70;92.00;;;;;;5009635;28;20022;-80
2023/09/21 11:02:24;;;;;;;;;;;26.50;90.80;;;;;;5010395;28;20030;-80
2023/09/21 11:04:52;;;;;;;0.85;0.75;;;26.50;91.30;;;;;;5009622;28;19917;-80
2023/09/21 11:07:21;;;;;;;3.65;1.27;;;26.50;91.10;;;;;;5009456;28;20041;-81
2023/09/21 11:09:48;;;;;;;1.55;1.40;;;26.30;91.10;;;;;;5011047;28;20022;-81
2023/09/21 11:12:14;;;;;;;1.48;1.38;;;26.30;91.40;;;;;;5009559;28;20022;-81
2023/09/21 11:14:50;;;;;;;2.70;0.95;;;26.10;91.20;;;;;;5009341;28;20030;-80
2023/09/21 11:17:19;;;;;;;1.67;1.13;;;26.20;92.60;;;;;;5008737;28;20030;-80
2023/09/21 11:19:46;;;;;;;1.02;0.90;;;26.20;91.90;;;;;;5009628;28;20060;-80
2023/09/21 11:22:15;;;;;;;1.52;0.77;;;26.40;91.60;;;;;;5009234;28;20022;-80
2023/09/21 11:24:42;;;;;;;1.20;0.70;;;26.70;92.80;;;;;;5006451;28;20485;-80
2023/09/21 11:27:09;;;;;;;1.00;0.98;;;27.10;92.60;;;;;;5009233;28;20128;-80
2023/09/21 11:29:39;;;;;;;4.22;1.48;;;27.30;92.40;;;;;;5009164;28;20054;-80
2023/09/21 11:32:07;;;;;;;2.70;1.05;;;27.70;91.50;;;;;;5009056;28;20022;-80
2023/09/21 11:34:39;;;;;;;1.08;0.98;;;27.90;91.20;;;;;;5009170;28;20111;-80
2023/09/21 11:37:07;;;;;;;1.90;1.20;;;28.10;91.70;;;;;;5008999;28;20037;-79
2023/09/21 11:39:35;;;;;;;3.45;1.67;;;28.00;90.30;;;;;;5008971;28;20109;-80
2023/09/21 11:42:00;;;;;;;3.92;1.60;;;27.80;90.30;;;;;;5009259;28;20116;-81
2023/09/21 11:44:28;;;;;;;2.35;1.17;;;27.60;91.40;;;;;;5009102;28;20455;-81
2023/09/21 11:46:57;;;;;;;1.88;1.35;;;27.60;91.60;;;;;;5007534;28;20065;-81
2023/09/21 11:49:37;;;;;;;1.70;1.42;;;27.60;91.50;;;;;;5007659;28;20022;-81
2023/09/21 11:52:03;;;;;;;2.28;1.48;;;27.30;91.30;;;;;;5006587;28;20046;-81
2023/09/21 11:54:30;;;;;;;1.63;1.13;;;27.30;91.90;;;;;;5007277;28;20038;-81
2023/09/21 11:56:56;;;;;;;1.27;1.00;;;27.10;90.80;;;;;;5008584;28;20046;-80
2023/09/21 11:59:21;;;;;;;2.10;1.13;;;27.20;92.10;;;;;;5008323;28;20099;-80
2023/09/21 12:01:48;;;;;;;1.45;0.88;;;27.30;91.60;;;;;;5007133;28;20033;-80
2023/09/21 12:04:17;;;;;;;1.95;1.23;;;27.50;91.90;;;;;;5006963;28;20022;-80
2023/09/21 12:06:43;;;;;;;0.93;0.90;;;27.70;91.70;;;;;;5006342;28;20076;-81
2023/09/21 12:09:12;;;;;;;1.05;0.95;;;28.00;90.80;;;;;;5006933;28;20482;-80
2023/09/21 12:11:38;;;;;;;3.65;1.73;;;28.00;90.00;;;;;;5007276;28;20022;-79
2023/09/21 12:14:04;;;;;;;2.88;1.27;;;28.00;90.10;;;;;;5007355;28;20022;-79
2023/09/21 12:16:31;;;;;;;2.45;1.23;;;28.00;89.70;;;;;;5007948;28;20113;-80
2023/09/21 12:19:00;;;;;;;3.13;1.00;;;28.10;90.60;;;;;;5007974;28;20092;-81
2023/09/21 12:21:25;;;;;;;2.40;1.10;;;28.20;90.10;;;;;;5009969;28;20060;-80
2023/09/21 12:23:52;;;;;;;5.85;1.27;;;28.20;88.40;;;;;;5009680;28;20137;-79
2023/09/21 12:26:20;;;;;;;2.72;1.15;;;28.00;89.90;;;;;;5007745;28;20036;-77
2023/09/21 12:28:46;;;;;;;1.23;1.13;;;28.10;89.90;;;;;;5008065;28;20034;-80
2023/09/21 12:31:14;;;;;;;5.88;1.70;;;28.30;90.10;;;;;;5007759;28;20030;-80
2023/09/21 12:33:40;;;;;;;2.35;1.10;;;28.70;88.10;;;;;;5007960;28;20058;-81
2023/09/21 12:36:07;;;;;;;1.35;1.10;;;29.10;84.90;;;;;;5007817;28;20457;-79
2023/09/21 12:38:32;;;;;;;1.05;0.85;;;29.00;87.50;;;;;;5009451;28;20067;-81
2023/09/21 12:40:59;;;;;;;1.45;1.13;;;28.80;87.60;;;;;;5007970;28;20026;-81
2023/09/21 12:43:25;;;;;;;2.22;1.27;;;28.70;88.30;;;;;;5007671;28;20022;-80
2023/09/21 12:45:50;;;;;;;3.25;1.30;;;28.70;87.30;;;;;;5007834;28;20056;-81
2023/09/21 12:48:17;;;;;;;0.80;0.80;;;28.70;87.70;;;;;;5009082;28;20376;-81
2023/09/21 12:50:43;;;;;;;3.13;0.90;;;28.50;86.70;;;;;;5009227;28;20029;-80
2023/09/21 12:53:10;;;;;;;1.30;1.20;;;28.20;87.10;;;;;;5006917;28;20136;-82
2023/09/21 12:55:37;;;;;;;3.65;0.90;;;28.00;89.00;;;;;;5007615;28;20053;-80
2023/09/21 12:58:06;;;;;;;1.13;1.08;;;28.10;89.20;;;;;;5008811;28;20026;-80
2023/09/21 13:00:32;;;;;;;;;;;28.00;87.30;;;;;;5008109;28;20497;-81